ADDS METAR Data INFO
IDs: Format: Raw Decoded Include TAF

Data at: 0319 UTC 20 Jul 2018

KLGA 200251Z 18009KT 10SM CLR 23/16 A3011 RMK AO2 SLP195 T02330156 50011 $
KLGA 200151Z 19008KT 10SM FEW250 24/16 A3011 RMK AO2 SLP196 T02390156 $
KLGA 200051Z 19011KT 10SM FEW250 24/14 A3008 RMK AO2 SLP187 T02440139 $
KLGA 192351Z 16009KT 10SM FEW250 26/12 A3008 RMK AO2 SLP184 T02560117 10283 20256 53003 $
KLGA 192251Z 16010KT 10SM FEW070 FEW250 27/11 A3007 RMK AO2 SLP182 T02670111 $
KLGA 192151Z 16010KT 10SM FEW070 FEW250 27/11 A3007 RMK AO2 SLP181 T02720111 $
KLGA 192051Z 15009KT 10SM FEW070 FEW250 28/11 A3007 RMK AO2 SLP181 T02780106 56006 $
KLGA 191951Z 04006KT 10SM FEW075 FEW250 28/10 A3007 RMK AO2 SLP181 T02830100 $
KLGA 191851Z 04006KT 10SM FEW075 27/08 A3008 RMK AO2 SLP185 T02720083 $
KLGA 191751Z 05006KT 10SM CLR 26/08 A3009 RMK AO2 SLP188 T02610078 10267 20211 58009 $
KLGA 191651Z 04009KT 10SM CLR 26/08 A3010 RMK AO2 SLP192 T02560083 $
KLGA 191551Z 05009KT 10SM CLR 25/11 A3011 RMK AO2 SLP196 T02500106 $
KLGA 191451Z 05009KT 10SM CLR 23/11 A3011 RMK AO2 SLP196 T02330106 51013 $
KLGA 191351Z 05011KT 10SM CLR 23/11 A3010 RMK AO2 SLP192 T02280106 $
KLGA 191251Z 05011KT 10SM CLR 22/10 A3009 RMK AO2 SLP189 T02220100 $
KLGA 191151Z 05009KT 10SM CLR 21/10 A3007 RMK AO2 SLP184 T02110100 10228 20200 51014 $
KLGA 191051Z 03007KT 10SM CLR 21/10 A3006 RMK AO2 SLP180 T02060100 $
KLGA 190951Z 02005KT 10SM CLR 21/11 A3005 RMK AO2 SLP175 T02060106 $
KLGA 190851Z 36004KT 10SM CLR 21/11 A3003 RMK AO2 SLP170 T02110106 53010 $
KLGA 190751Z 02004KT 10SM CLR 22/11 A3002 RMK AO2 SLP165 T02170111 $
KLGA 190651Z 06007KT 10SM CLR 22/13 A3001 RMK AO2 SLP162 T02170133 $
KLGA 190551Z 07005KT 10SM CLR 23/12 A3000 RMK AO2 SLP160 T02280117 10278 20228 53013 $
KLGA 190451Z 34007KT 10SM CLR 24/11 A2999 RMK AO2 SLP154 T02390111 402940217 $
KLGA 190351Z 33006KT 10SM CLR 24/12 A2998 RMK AO2 SLP150 T02440117 $
KLGA 190251Z 33007KT 10SM CLR 25/12 A2997 RMK AO2 SLP147 T02500117 51019 $
KLGA 190151Z 34008KT 10SM CLR 27/09 A2995 RMK AO2 SLP142 T02670094 $
KLGA 190051Z 32008KT 10SM FEW065 27/11 A2993 RMK AO2 SLP133 T02670106 $
KLGA 182351Z 31013KT 10SM FEW075 28/11 A2991 RMK AO2 SLP127 T02780106 10294 20278 53013 $
KLGA 182251Z 33011KT 10SM SCT080 29/10 A2989 RMK AO2 SLP121 T02890100 $
KLGA 182151Z 30008KT 10SM SCT075 29/10 A2987 RMK AO2 SLP115 T02940100 $
KLGA 182051Z 33015KT 10SM FEW065 29/12 A2987 RMK AO2 SLP114 T02940117 58007 $
KLGA 181951Z 35010KT 10SM FEW065 29/13 A2988 RMK AO2 SLP117 T02890133 $
KLGA 181851Z 01012KT 10SM FEW050 29/13 A2989 RMK AO2 SLP121 T02890128 $
KLGA 181751Z 01015G23KT 10SM FEW050 SCT250 28/11 A2989 RMK AO2 SLP121 T02780111 10283 20228 55001 $
KLGA 181651Z 36015G20KT 10SM FEW050 FEW250 28/11 A2989 RMK AO2 SLP120 T02780106 $
KLGA 181551Z 36014KT 10SM SCT070 SCT250 27/14 A2989 RMK AO2 SLP122 T02720144 $